Home PIREPS Pireps

Flight SAB3136

  • Submitted By: Vincent Fourni
  • Departure Airport: Firenze / Peretola (LIRQ)
  • Arrival Airport: Bruxelles National (EBBR)
  • Aircraft: B737-500 (OO-SAB)
  • Flight Time: 01.33
  • Date Submitted: 09/10/2015
  • Status: Accepted
Flight Details
Gross Revenue:
(128 load / € 0.00 per unit
€ 0.00
Fuel Cost:
(3958 fuel used @ 5.1 / unit)
€ 20,185.80

Additional Log Information:

View Log

Aircraft Used in flight is SN Brussels Airlines
20:43 Brakes are On
20:43 Brakes are Released
20:44 Brakes are On
20:44 Brakes are Released
20:47 You Took off @ 151 Knots and Flaps at Position 3
Departure Weather
LIRQ 091820Z VRB03KT 9999 FEW050 19/12 Q1013rn
20:47 Landing Gear Up @ 155 Knots and 390 Feet
20:47 You exceeded maximum bank angle
20:51 Above FL100 you need to switch of the landing lights
22:09 Landing Gear Down @ 191 Knots and 2330 Feet
22:12 You Landed @ 133 Knots and with -500 Vertical Speed
Arrival Weather
EBBR 091950Z 07001KT CAVOK 10/09 Q1022 NOSIGrn
22:15 Brakes are On
22:16 Brussels Bel-Track1.0.1.2

Route Map

Corporate About Us Our Team Vacancies Information Fleet Route Network Rules and Regulations Operations Flight Schedules Event Center Tours Partners IVAO Vatsim Acars dev FSCB

fb Users Online No pilots online!
0 Pilot(s) and 120 Guest(s) Online
CMS by phpVMS - Design by Crazycreatives.com - Copyright © 2020 - Brussels Airlines Virtual